Time;durP1;ratioP1;P1;durP2;ratioP2;P2;SDS_P1;SDS_P2;PMS_P1;PMS_P2;Temp;Humidity;BMP_temperature;BMP_pressure;BME280_temperature;BME280_humidity;BME280_pressure;Samples;Min_cycle;Max_cycle;Signal;HPM_P1;HPM_P2
2023/09/07 00:01:36;;;;;;;1.10;0.80;;;18.90;1.00;;;;;;5138536;27;20718;-59
2023/09/07 00:04:06;;;;;;;1.00;0.80;;;19.00;1.00;;;;;;5138518;27;20767;-60
2023/09/07 00:06:34;;;;;;;1.23;0.80;;;19.00;34.10;;;;;;5138240;27;20426;-60
2023/09/07 00:09:01;;;;;;;1.10;0.80;;;18.90;55.30;;;;;;5138134;27;20460;-60
2023/09/07 00:11:28;;;;;;;1.00;0.70;;;18.90;99.90;;;;;;5137534;27;20464;-60
2023/09/07 00:13:57;;;;;;;1.20;0.80;;;18.90;99.90;;;;;;5136200;27;20694;-60
2023/09/07 00:16:24;;;;;;;3.30;0.82;;;18.90;98.70;;;;;;5137003;27;20494;-60
2023/09/07 00:18:53;;;;;;;1.10;0.70;;;18.80;99.90;;;;;;5136677;27;20729;-60
2023/09/07 00:21:20;;;;;;;1.03;0.80;;;18.80;99.90;;;;;;5136693;27;20429;-60
2023/09/07 00:23:47;;;;;;;1.30;0.70;;;18.70;99.90;;;;;;5137317;27;20885;-60
2023/09/07 00:26:15;;;;;;;0.93;0.70;;;18.70;99.90;;;;;;5136244;27;20426;-61
2023/09/07 00:28:42;;;;;;;1.60;0.80;;;18.70;99.90;;;;;;5121168;27;20492;-60
2023/09/07 00:31:09;;;;;;;1.20;0.80;;;18.60;1.00;;;;;;5133175;27;20414;-61
2023/09/07 00:33:36;;;;;;;2.70;0.80;;;18.60;1.00;;;;;;5134814;27;20442;-60
2023/09/07 00:36:05;;;;;;;1.00;0.80;;;18.60;1.00;;;;;;5135126;27;20491;-60
2023/09/07 00:38:32;;;;;;;1.30;0.80;;;18.60;1.00;;;;;;5135782;27;20429;-60
2023/09/07 00:41:00;;;;;;;1.90;0.70;;;18.60;1.00;;;;;;5136500;27;20833;-60
2023/09/07 00:43:27;;;;;;;1.50;1.20;;;18.60;1.00;;;;;;5137352;27;20505;-60
2023/09/07 00:45:54;;;;;;;1.20;0.80;;;18.60;99.90;;;;;;5137000;27;20493;-60
2023/09/07 00:48:22;;;;;;;1.40;0.80;;;18.50;1.00;;;;;;5137979;27;20414;-61
2023/09/07 00:50:50;;;;;;;1.35;0.88;;;18.50;1.00;;;;;;5137656;27;20423;-60
2023/09/07 00:53:18;;;;;;;1.10;0.80;;;18.50;1.00;;;;;;5137528;27;20422;-60
2023/09/07 00:55:46;;;;;;;0.90;0.70;;;18.50;1.00;;;;;;5137356;27;20480;-60
2023/09/07 00:58:13;;;;;;;1.50;0.80;;;18.50;1.00;;;;;;5137127;27;20421;-60
2023/09/07 01:00:42;;;;;;;1.10;0.75;;;18.50;1.00;;;;;;5137294;27;20825;-60
2023/09/07 01:03:09;;;;;;;1.40;0.70;;;18.40;1.00;;;;;;5137711;27;20442;-60
2023/09/07 01:05:48;;;;;;;1.60;0.90;;;18.40;1.00;;;;;;5136575;27;20484;-59
2023/09/07 01:08:24;;;;;;;1.10;0.77;;;18.30;1.00;;;;;;5136582;27;20417;-60
2023/09/07 01:10:51;;;;;;;1.17;0.77;;;18.30;1.00;;;;;;5136890;27;20418;-59
2023/09/07 01:13:20;;;;;;;1.20;0.80;;;18.30;1.00;;;;;;5129282;27;20487;-61
2023/09/07 01:15:47;;;;;;;2.00;0.80;;;18.20;1.00;;;;;;5129613;27;20478;-59
2023/09/07 01:18:16;;;;;;;1.90;0.90;;;18.20;99.90;;;;;;5136936;27;20418;-61
2023/09/07 01:20:45;;;;;;;1.50;0.80;;;18.20;99.90;;;;;;5136908;27;20429;-60
2023/09/07 01:23:14;;;;;;;1.30;0.90;;;18.20;99.90;;;;;;5137414;27;20426;-59
2023/09/07 01:25:43;;;;;;;1.30;0.80;;;18.20;99.90;;;;;;5136862;27;20419;-59
2023/09/07 01:28:10;;;;;;;1.00;0.70;;;18.20;99.90;;;;;;5130915;27;20525;-58
2023/09/07 01:30:38;;;;;;;1.67;0.80;;;18.20;99.90;;;;;;5125956;27;20840;-60
2023/09/07 01:33:06;;;;;;;1.30;0.90;;;18.20;42.40;;;;;;5136639;27;20864;-59
2023/09/07 01:35:34;;;;;;;1.52;0.90;;;18.20;88.40;;;;;;5136779;27;20479;-59
2023/09/07 01:38:02;;;;;;;1.10;0.75;;;18.10;99.90;;;;;;5136817;27;20418;-59
2023/09/07 01:40:30;;;;;;;2.00;1.10;;;18.10;99.90;;;;;;5136339;27;20415;-59
2023/09/07 01:42:58;;;;;;;1.50;0.80;;;18.00;99.90;;;;;;5136435;27;20410;-60
2023/09/07 01:45:25;;;;;;;1.00;0.70;;;18.00;99.90;;;;;;5136845;27;20410;-59
2023/09/07 01:47:52;;;;;;;1.20;0.90;;;18.00;99.90;;;;;;5136216;27;20430;-59
2023/09/07 01:50:19;;;;;;;1.52;0.85;;;17.90;99.90;;;;;;5136512;27;20821;-59
2023/09/07 01:52:49;;;;;;;1.20;0.80;;;17.90;99.90;;;;;;5136406;27;20429;-59
2023/09/07 01:55:16;;;;;;;1.10;0.70;;;17.90;99.90;;;;;;5136519;27;20422;-59
2023/09/07 01:57:45;;;;;;;1.25;0.70;;;17.90;99.90;;;;;;5136276;27;20777;-60
2023/09/07 02:00:13;;;;;;;1.48;0.80;;;17.90;99.90;;;;;;5136337;27;20429;-59
2023/09/07 02:02:41;;;;;;;1.10;0.75;;;17.90;99.90;;;;;;5136470;27;20423;-59
2023/09/07 02:05:09;;;;;;;1.58;0.80;;;17.90;99.90;;;;;;5136332;27;20705;-59
2023/09/07 02:07:36;;;;;;;1.20;0.70;;;17.90;99.90;;;;;;5136155;27;20808;-59
2023/09/07 02:10:04;;;;;;;1.83;0.80;;;17.90;99.90;;;;;;5135019;27;20410;-60
2023/09/07 02:12:31;;;;;;;1.00;0.77;;;17.80;99.90;;;;;;5135848;27;20415;-59
2023/09/07 02:15:02;;;;;;;1.40;0.80;;;17.80;99.90;;;;;;5136080;27;20415;-59
2023/09/07 02:17:30;;;;;;;1.90;0.80;;;17.80;99.90;;;;;;5135718;27;20447;-59
2023/09/07 02:19:57;;;;;;;1.20;0.80;;;17.70;99.90;;;;;;5136282;28;20418;-59
2023/09/07 02:22:24;;;;;;;3.60;0.80;;;17.70;99.90;;;;;;5135476;28;20422;-59
2023/09/07 02:24:51;;;;;;;1.20;0.77;;;17.70;99.90;;;;;;5134461;28;20425;-58
2023/09/07 02:27:19;;;;;;;1.10;0.70;;;17.70;99.90;;;;;;5120272;28;20710;-59
2023/09/07 02:29:46;;;;;;;1.10;0.70;;;17.80;99.90;;;;;;5136017;27;20506;-59
2023/09/07 02:32:14;;;;;;;2.00;0.80;;;17.70;99.90;;;;;;5139764;27;20432;-59
2023/09/07 02:34:42;;;;;;;1.20;0.80;;;17.70;99.90;;;;;;5138211;27;20429;-59
2023/09/07 02:37:09;;;;;;;1.40;0.80;;;17.60;99.90;;;;;;5137824;27;20406;-59
2023/09/07 02:39:36;;;;;;;1.98;0.80;;;17.60;99.90;;;;;;5138130;27;20420;-59
2023/09/07 02:42:04;;;;;;;1.30;0.90;;;17.50;1.00;;;;;;5138156;27;20491;-59
2023/09/07 02:44:31;;;;;;;3.35;0.80;;;17.50;1.00;;;;;;5139507;27;20418;-59
2023/09/07 02:46:58;;;;;;;1.00;0.80;;;17.40;1.00;;;;;;5139189;27;20436;-59
2023/09/07 02:49:26;;;;;;;1.77;0.80;;;17.40;1.00;;;;;;5139797;27;20422;-58
2023/09/07 02:51:53;;;;;;;1.13;0.80;;;17.40;1.00;;;;;;5140108;27;20429;-58
2023/09/07 02:54:21;;;;;;;1.67;0.70;;;17.30;1.00;;;;;;5139968;27;20484;-59
2023/09/07 02:56:48;;;;;;;1.55;0.80;;;17.40;1.00;;;;;;5140156;27;20840;-59
2023/09/07 02:59:15;;;;;;;1.38;0.80;;;17.50;1.00;;;;;;5139254;27;20516;-59
2023/09/07 03:01:42;;;;;;;1.20;0.80;;;17.50;1.00;;;;;;5139805;27;20418;-59
2023/09/07 03:04:10;;;;;;;1.00;0.80;;;17.40;1.00;;;;;;5139700;27;20423;-59
2023/09/07 03:06:38;;;;;;;1.40;0.80;;;17.40;1.00;;;;;;5139827;27;20442;-59
2023/09/07 03:09:08;;;;;;;1.33;0.73;;;17.40;1.00;;;;;;5140166;27;20737;-59
2023/09/07 03:11:35;;;;;;;1.10;0.70;;;17.40;1.00;;;;;;5139835;27;20477;-59
2023/09/07 03:14:03;;;;;;;1.10;0.80;;;17.30;1.00;;;;;;5139493;27;20414;-59
2023/09/07 03:16:31;;;;;;;2.30;0.90;;;17.30;1.00;;;;;;5138813;27;20534;-59
2023/09/07 03:18:58;;;;;;;1.27;0.90;;;17.30;1.00;;;;;;5139341;27;20414;-58
2023/09/07 03:21:29;;;;;;;1.67;0.75;;;17.20;1.00;;;;;;5139551;27;20501;-59
2023/09/07 03:23:57;;;;;;;1.27;0.80;;;17.20;1.00;;;;;;5139592;27;20725;-59
2023/09/07 03:26:25;;;;;;;1.10;0.73;;;17.10;1.00;;;;;;5139333;27;20482;-59
2023/09/07 03:28:52;;;;;;;1.40;0.80;;;17.10;1.00;;;;;;5122126;27;20694;-59
2023/09/07 03:31:19;;;;;;;1.70;0.70;;;17.10;1.00;;;;;;5139084;27;20426;-59
2023/09/07 03:33:46;;;;;;;1.00;0.77;;;17.10;1.00;;;;;;5139293;27;20410;-59
2023/09/07 03:36:14;;;;;;;1.60;0.80;;;17.10;1.00;;;;;;5138874;27;20418;-59
2023/09/07 03:38:42;;;;;;;1.60;0.80;;;17.10;1.00;;;;;;5137584;27;20779;-59
2023/09/07 03:41:10;;;;;;;2.70;0.90;;;17.00;1.00;;;;;;5135934;27;20534;-59
2023/09/07 03:43:38;;;;;;;1.40;1.00;;;17.00;1.00;;;;;;5122906;27;20430;-58
2023/09/07 03:46:05;;;;;;;1.83;0.80;;;17.00;1.00;;;;;;5134002;27;20497;-59
2023/09/07 03:48:32;;;;;;;1.20;0.70;;;17.00;1.00;;;;;;5138647;27;20748;-58
2023/09/07 03:50:59;;;;;;;1.55;0.90;;;17.00;1.00;;;;;;5137059;27;20425;-58
2023/09/07 03:53:26;;;;;;;2.30;0.90;;;17.00;1.00;;;;;;5136672;27;20426;-59
2023/09/07 03:55:53;;;;;;;1.50;1.00;;;17.00;1.00;;;;;;5137082;27;20423;-57
2023/09/07 03:58:22;;;;;;;1.60;0.90;;;17.00;1.00;;;;;;5128145;27;20422;-57
2023/09/07 04:00:50;;;;;;;1.10;0.80;;;17.00;1.00;;;;;;5129632;27;20499;-57
2023/09/07 04:03:17;;;;;;;1.60;0.85;;;16.90;1.00;;;;;;5136030;27;20409;-57
2023/09/07 04:05:44;;;;;;;1.30;0.80;;;16.80;1.00;;;;;;5135202;27;20721;-57
2023/09/07 04:08:12;;;;;;;1.10;0.80;;;16.80;1.00;;;;;;5134407;27;20431;-57
2023/09/07 04:10:39;;;;;;;1.50;0.90;;;16.80;1.00;;;;;;5135790;27;20411;-57
2023/09/07 04:13:07;;;;;;;1.50;0.90;;;16.80;1.00;;;;;;5131417;27;20422;-57
2023/09/07 04:15:42;;;;;;;1.77;0.80;;;16.80;1.00;;;;;;5123188;27;20499;-56
2023/09/07 04:18:10;;;;;;;1.70;0.90;;;16.70;1.00;;;;;;5136399;27;20726;-57
2023/09/07 04:20:37;;;;;;;1.73;0.80;;;16.80;1.00;;;;;;5137532;27;20834;-57
2023/09/07 04:23:04;;;;;;;1.10;0.80;;;16.80;1.00;;;;;;5137219;27;20422;-57
2023/09/07 04:25:32;;;;;;;1.30;0.80;;;16.80;1.00;;;;;;5137401;27;20470;-57
2023/09/07 04:28:00;;;;;;;1.75;0.82;;;16.80;1.00;;;;;;5136234;27;20440;-57
2023/09/07 04:30:27;;;;;;;1.40;0.80;;;16.70;1.00;;;;;;5136782;27;20417;-57
2023/09/07 04:32:56;;;;;;;1.20;0.90;;;16.70;1.00;;;;;;5136766;27;20832;-58
2023/09/07 04:35:27;;;;;;;1.30;0.90;;;16.70;1.00;;;;;;5137933;27;20463;-57
2023/09/07 04:37:54;;;;;;;1.33;1.00;;;16.70;1.00;;;;;;5137487;27;20513;-57
2023/09/07 04:40:22;;;;;;;1.30;0.80;;;16.70;1.00;;;;;;5137524;27;20830;-57
2023/09/07 04:42:50;;;;;;;1.13;0.80;;;16.70;1.00;;;;;;5137639;27;20416;-57
2023/09/07 04:45:17;;;;;;;1.40;0.80;;;16.70;1.00;;;;;;5136791;27;20417;-57
2023/09/07 04:47:44;;;;;;;1.15;0.80;;;16.60;1.00;;;;;;5137010;27;20429;-57
2023/09/07 04:50:14;;;;;;;1.60;0.80;;;16.60;1.00;;;;;;5136666;27;20894;-57
2023/09/07 04:52:41;;;;;;;2.70;1.00;;;16.60;1.00;;;;;;5136318;27;20480;-57
2023/09/07 04:55:09;;;;;;;1.40;0.90;;;16.60;1.00;;;;;;5133827;27;20402;-57
2023/09/07 04:57:38;;;;;;;2.42;0.90;;;16.60;1.00;;;;;;5132703;27;20407;-57
2023/09/07 05:00:09;;;;;;;2.00;1.00;;;16.60;1.00;;;;;;5131482;27;21597;-57
2023/09/07 05:02:40;;;;;;;1.30;0.90;;;16.50;1.00;;;;;;5134029;27;20455;-57
2023/09/07 05:05:08;;;;;;;1.80;1.10;;;16.60;1.00;;;;;;5132934;27;20445;-57
2023/09/07 05:07:36;;;;;;;1.20;0.80;;;16.60;1.00;;;;;;5131026;27;20867;-56
2023/09/07 05:10:06;;;;;;;2.10;0.90;;;16.60;1.00;;;;;;5129991;27;20414;-57
2023/09/07 05:12:33;;;;;;;1.52;0.90;;;16.70;1.00;;;;;;5131464;27;20492;-57
2023/09/07 05:15:01;;;;;;;1.40;0.90;;;16.70;1.00;;;;;;5132771;27;20418;-57
2023/09/07 05:17:28;;;;;;;1.30;0.90;;;16.90;1.00;;;;;;5125058;27;20516;-57
2023/09/07 05:19:55;;;;;;;1.40;0.90;;;16.90;1.00;;;;;;5114848;28;20855;-58
2023/09/07 05:22:22;;;;;;;2.05;1.00;;;17.00;1.00;;;;;;5114307;28;20420;-57
2023/09/07 05:24:51;;;;;;;1.40;0.90;;;17.00;1.00;;;;;;5113047;28;20418;-58
2023/09/07 05:27:18;;;;;;;1.20;0.88;;;16.90;1.00;;;;;;5111985;28;20594;-58
2023/09/07 05:29:45;;;;;;;1.30;0.90;;;16.90;1.00;;;;;;5110516;28;20636;-57
2023/09/07 05:32:13;;;;;;;1.50;0.90;;;17.00;1.00;;;;;;5113038;28;20792;-58
2023/09/07 05:34:41;;;;;;;1.10;0.90;;;17.00;1.00;;;;;;5111828;28;20419;-57
2023/09/07 05:37:08;;;;;;;1.65;0.90;;;17.00;1.00;;;;;;5110942;28;20408;-58
2023/09/07 05:39:35;;;;;;;2.45;0.82;;;17.00;1.00;;;;;;5110089;28;20462;-58
2023/09/07 05:42:04;;;;;;;1.17;0.95;;;16.90;1.00;;;;;;5110036;28;20422;-56
2023/09/07 05:44:31;;;;;;;2.20;0.90;;;16.80;1.00;;;;;;5109260;28;20739;-58
2023/09/07 05:46:59;;;;;;;1.50;0.90;;;16.80;1.00;;;;;;5108557;28;20633;-57
2023/09/07 05:49:27;;;;;;;1.95;1.00;;;16.70;1.00;;;;;;5114005;27;20780;-58
2023/09/07 05:51:54;;;;;;;1.38;0.85;;;16.70;1.00;;;;;;5126307;27;20422;-57
2023/09/07 05:54:21;;;;;;;1.70;0.90;;;16.80;1.00;;;;;;5133222;27;20422;-57
2023/09/07 05:56:49;;;;;;;1.00;0.80;;;17.00;1.00;;;;;;5131721;27;20410;-57
2023/09/07 05:59:18;;;;;;;1.60;0.95;;;17.00;1.00;;;;;;5130694;27;20691;-56
2023/09/07 06:01:45;;;;;;;4.40;1.00;;;17.10;1.00;;;;;;5133278;27;20429;-57
2023/09/07 06:04:13;;;;;;;1.90;1.00;;;17.00;1.00;;;;;;5127434;27;20525;-58
2023/09/07 06:06:40;;;;;;;1.83;0.95;;;17.10;1.00;;;;;;5133224;27;20493;-57
2023/09/07 06:09:07;;;;;;;2.38;0.90;;;17.10;1.00;;;;;;5127475;27;20466;-59
2023/09/07 06:11:35;;;;;;;1.98;1.00;;;17.20;1.00;;;;;;5132336;27;20501;-57
2023/09/07 06:14:02;;;;;;;1.45;0.90;;;17.20;1.00;;;;;;5128391;27;20850;-57
2023/09/07 06:16:31;;;;;;;1.77;1.00;;;17.20;1.00;;;;;;5132186;27;20475;-57
2023/09/07 06:18:58;;;;;;;2.40;0.90;;;17.30;1.00;;;;;;5125905;27;20663;-58
2023/09/07 06:21:25;;;;;;;1.30;0.90;;;17.40;1.00;;;;;;5123040;28;20638;-58
2023/09/07 06:23:52;;;;;;;1.60;1.10;;;17.50;1.00;;;;;;5109029;28;20735;-57
2023/09/07 06:26:20;;;;;;;1.60;1.17;;;17.50;1.00;;;;;;5127454;27;20742;-58
2023/09/07 06:28:47;;;;;;;3.50;0.98;;;17.50;1.00;;;;;;5108308;28;20871;-59
2023/09/07 06:31:14;;;;;;;1.92;1.10;;;17.70;1.00;;;;;;5105854;28;20480;-56
2023/09/07 06:33:42;;;;;;;1.70;1.05;;;17.90;1.00;;;;;;5106341;28;20420;-58
2023/09/07 06:36:10;;;;;;;2.75;1.00;;;17.90;1.00;;;;;;5104860;28;20423;-56
2023/09/07 06:38:37;;;;;;;2.40;1.10;;;18.00;1.00;;;;;;5107240;28;20431;-58
2023/09/07 06:41:04;;;;;;;1.50;1.00;;;18.10;1.00;;;;;;5112064;28;20838;-58
2023/09/07 06:43:32;;;;;;;1.80;1.20;;;18.10;99.90;;;;;;5109052;28;20878;-57
2023/09/07 06:46:04;;;;;;;1.80;1.10;;;18.20;99.90;;;;;;5128612;27;20506;-55
2023/09/07 06:48:32;;;;;;;1.70;0.90;;;18.20;99.90;;;;;;5098731;28;20420;-57
2023/09/07 06:51:04;;;;;;;1.70;1.00;;;18.20;99.90;;;;;;5110689;28;20473;-58
2023/09/07 06:53:31;;;;;;;1.48;0.90;;;18.30;99.90;;;;;;5119874;27;20430;-48
2023/09/07 06:55:59;;;;;;;2.10;1.10;;;18.40;99.90;;;;;;5113782;28;20428;-52
2023/09/07 06:58:28;;;;;;;1.50;1.00;;;18.40;99.90;;;;;;5111293;28;20718;-49
2023/09/07 07:00:58;;;;;;;2.10;1.02;;;18.50;99.90;;;;;;5120785;27;20432;-52
2023/09/07 07:03:27;;;;;;;2.58;1.20;;;18.60;99.90;;;;;;5102132;28;20420;-53
2023/09/07 07:05:54;;;;;;;1.80;1.00;;;18.80;99.90;;;;;;5110611;28;20427;-52
2023/09/07 07:08:23;;;;;;;2.90;1.00;;;18.90;95.30;;;;;;5110451;28;20503;-48
2023/09/07 07:10:51;;;;;;;1.40;1.10;;;19.10;1.00;;;;;;5122530;27;20434;-50
2023/09/07 07:13:18;;;;;;;3.50;1.30;;;19.20;1.00;;;;;;5117126;27;20776;-51
2023/09/07 07:15:45;;;;;;;3.97;1.40;;;19.20;1.00;;;;;;5114978;27;20451;-52
2023/09/07 07:18:12;;;;;;;2.50;1.20;;;19.20;1.00;;;;;;5101668;28;20424;-49
2023/09/07 07:20:41;;;;;;;2.70;1.20;;;19.30;1.00;;;;;;5112507;28;20507;-52
2023/09/07 07:23:12;;;;;;;1.60;1.30;;;19.30;1.00;;;;;;5117308;27;20445;-52
2023/09/07 07:25:44;;;;;;;3.20;1.50;;;19.40;1.00;;;;;;5120197;27;20428;-53
2023/09/07 07:28:14;;;;;;;1.90;1.20;;;19.50;1.00;;;;;;5123978;27;20529;-53
2023/09/07 07:30:43;;;;;;;2.50;1.00;;;19.60;1.00;;;;;;5130204;27;20418;-54
2023/09/07 07:33:12;;;;;;;3.42;1.50;;;19.70;99.90;;;;;;5133304;27;20434;-55
2023/09/07 07:35:41;;;;;;;2.83;1.20;;;19.80;99.90;;;;;;5124033;27;20432;-54
2023/09/07 07:38:08;;;;;;;1.70;1.30;;;19.90;99.90;;;;;;5125093;27;20503;-53
2023/09/07 07:40:35;;;;;;;2.42;1.30;;;19.90;1.00;;;;;;5127324;27;20420;-55
2023/09/07 07:43:04;;;;;;;2.17;1.20;;;19.90;1.00;;;;;;5127391;27;20421;-52
2023/09/07 07:45:36;;;;;;;2.80;1.20;;;20.00;1.00;;;;;;5117754;27;20713;-55
2023/09/07 07:48:05;;;;;;;1.50;1.20;;;20.10;99.90;;;;;;5127963;27;20438;-55
2023/09/07 07:50:32;;;;;;;2.50;1.20;;;20.10;43.00;;;;;;5120869;27;20434;-54
2023/09/07 07:52:59;;;;;;;1.70;1.10;;;20.20;23.90;;;;;;5117729;27;20868;-50
2023/09/07 07:55:26;;;;;;;2.63;1.20;;;20.30;1.00;;;;;;5116907;27;20437;-53
2023/09/07 07:57:53;;;;;;;2.60;1.10;;;20.40;99.90;;;;;;5125763;27;20811;-53
2023/09/07 08:00:22;;;;;;;1.33;1.10;;;20.50;99.90;;;;;;5118038;27;20419;-52
2023/09/07 08:02:49;;;;;;;2.30;1.20;;;20.60;99.90;;;;;;5129183;27;20937;-50
2023/09/07 08:05:17;;;;;;;1.67;1.10;;;20.60;1.00;;;;;;5115877;27;20450;-55
2023/09/07 08:07:44;;;;;;;3.10;1.10;;;20.70;1.00;;;;;;5132926;27;20890;-54
2023/09/07 08:10:11;;;;;;;2.10;1.20;;;20.70;1.00;;;;;;5114085;27;20435;-50
2023/09/07 08:12:38;;;;;;;2.03;1.30;;;20.70;1.00;;;;;;5124446;27;20495;-52
2023/09/07 08:15:06;;;;;;;1.42;1.10;;;20.70;1.00;;;;;;5116356;27;20911;-53
2023/09/07 08:17:35;;;;;;;1.70;1.20;;;20.70;1.00;;;;;;5122982;27;20487;-55
2023/09/07 08:20:02;;;;;;;2.30;1.23;;;20.80;1.00;;;;;;5118515;27;20844;-55
2023/09/07 08:22:30;;;;;;;1.98;1.20;;;20.90;99.90;;;;;;5142175;27;20729;-52
2023/09/07 08:24:58;;;;;;;1.70;1.17;;;21.00;99.90;;;;;;5123504;27;20425;-52
2023/09/07 08:27:25;;;;;;;1.98;1.20;;;21.10;99.90;;;;;;5135012;27;20413;-53
2023/09/07 08:29:53;;;;;;;2.00;1.50;;;21.20;93.50;;;;;;5121325;27;20428;-51
2023/09/07 08:32:21;;;;;;;2.30;1.20;;;21.20;1.00;;;;;;5138198;27;20505;-53
2023/09/07 08:34:49;;;;;;;2.60;1.20;;;21.30;1.00;;;;;;5116624;27;20521;-55
2023/09/07 08:37:16;;;;;;;1.98;1.20;;;21.30;1.00;;;;;;5130910;27;20757;-53
2023/09/07 08:39:44;;;;;;;3.13;1.20;;;21.40;1.00;;;;;;5129170;27;20486;-55
2023/09/07 08:42:12;;;;;;;1.70;1.10;;;21.40;1.00;;;;;;5130096;27;20691;-54
2023/09/07 08:44:42;;;;;;;1.80;1.30;;;21.50;1.00;;;;;;5129151;27;20476;-54
2023/09/07 08:47:10;;;;;;;1.90;1.30;;;21.50;1.00;;;;;;5131324;27;20425;-54
2023/09/07 08:49:37;;;;;;;1.60;1.10;;;21.50;1.00;;;;;;5124479;27;20846;-51
2023/09/07 08:52:06;;;;;;;1.70;1.20;;;21.60;1.00;;;;;;5130581;27;20410;-52
2023/09/07 08:54:35;;;;;;;2.73;1.13;;;21.70;99.90;;;;;;5124884;27;20996;-52
2023/09/07 08:57:05;;;;;;;1.90;1.20;;;21.70;99.90;;;;;;5126621;27;20973;-52
2023/09/07 08:59:32;;;;;;;1.70;1.30;;;21.70;99.90;;;;;;5117974;27;20466;-55
2023/09/07 09:01:59;;;;;;;2.10;1.20;;;21.80;99.90;;;;;;5126062;27;20902;-54
2023/09/07 09:04:27;;;;;;;1.70;1.30;;;22.00;99.90;;;;;;5129449;27;20430;-54
2023/09/07 09:06:54;;;;;;;1.80;1.40;;;22.00;99.90;;;;;;5124164;27;20733;-53
2023/09/07 09:09:27;;;;;;;1.63;1.10;;;22.10;99.90;;;;;;5124142;27;20820;-54
2023/09/07 09:11:54;;;;;;;2.50;1.20;;;22.20;55.70;;;;;;5117007;27;20448;-53
2023/09/07 09:14:22;;;;;;;1.60;1.20;;;22.30;22.80;;;;;;5128231;27;20473;-54
2023/09/07 09:16:51;;;;;;;2.40;1.20;;;22.40;1.00;;;;;;5125672;27;20947;-55
2023/09/07 09:19:19;;;;;;;1.30;1.10;;;22.60;1.00;;;;;;5131366;27;20426;-52
2023/09/07 09:21:46;;;;;;;1.77;1.30;;;22.70;1.00;;;;;;5128171;27;20517;-53
2023/09/07 09:24:14;;;;;;;1.92;1.23;;;22.90;1.00;;;;;;5134249;27;20441;-54
2023/09/07 09:26:43;;;;;;;1.75;1.20;;;23.00;1.00;;;;;;5125258;27;20807;-55
2023/09/07 09:29:11;;;;;;;2.45;1.15;;;23.10;1.00;;;;;;5118754;27;20426;-55
2023/09/07 09:31:39;;;;;;;1.50;1.20;;;23.30;1.00;;;;;;5129880;27;20751;-55
2023/09/07 09:34:06;;;;;;;1.80;1.00;;;23.40;1.00;;;;;;5132684;27;20498;-55
2023/09/07 09:36:37;;;;;;;1.30;1.00;;;23.50;1.00;;;;;;5130462;27;20877;-53
2023/09/07 09:39:05;;;;;;;2.35;1.20;;;23.60;1.00;;;;;;5129200;27;20418;-53
2023/09/07 09:41:34;;;;;;;3.30;1.30;;;23.70;1.00;;;;;;5126608;27;20437;-55
2023/09/07 09:44:04;;;;;;;2.10;1.10;;;23.80;99.90;;;;;;5125018;27;20424;-51
2023/09/07 09:46:33;;;;;;;1.92;1.20;;;23.90;99.90;;;;;;5127612;27;20722;-50
2023/09/07 09:49:02;;;;;;;2.30;1.20;;;24.10;99.90;;;;;;5122006;27;20428;-54
2023/09/07 09:51:32;;;;;;;2.70;1.20;;;24.20;99.90;;;;;;5124868;27;20426;-51
2023/09/07 09:54:01;;;;;;;1.90;1.50;;;24.30;99.90;;;;;;5125844;27;20423;-57
2023/09/07 09:56:29;;;;;;;4.15;1.50;;;24.50;99.90;;;;;;5125884;27;20422;-57
2023/09/07 09:58:56;;;;;;;2.00;1.20;;;24.60;99.90;;;;;;5122083;27;20881;-52
2023/09/07 10:01:25;;;;;;;1.37;1.20;;;24.60;99.90;;;;;;5128987;27;20585;-52
2023/09/07 10:03:54;;;;;;;1.95;1.20;;;24.70;99.90;;;;;;5129970;27;20522;-54
2023/09/07 10:06:25;;;;;;;2.80;1.50;;;24.80;99.90;;;;;;5129957;27;20425;-53
2023/09/07 10:08:56;;;;;;;2.40;1.20;;;25.00;99.90;;;;;;5129736;27;20809;-53
2023/09/07 10:11:30;;;;;;;2.10;1.10;;;25.00;99.90;;;;;;5131628;27;20436;-54
2023/09/07 10:14:03;;;;;;;1.60;1.20;;;25.10;99.90;;;;;;5133592;27;20418;-54
2023/09/07 10:16:43;;;;;;;1.50;1.20;;;25.50;99.90;;;;;;5130976;27;20460;-54
2023/09/07 10:19:16;;;;;;;1.60;1.00;;;25.80;99.90;;;;;;5118223;27;20837;-53
2023/09/07 10:21:44;;;;;;;1.70;1.20;;;26.10;59.60;;;;;;5127113;27;20436;-54
2023/09/07 10:24:11;;;;;;;1.50;1.20;;;26.40;20.50;;;;;;5140676;27;20408;-53
2023/09/07 10:26:38;;;;;;;1.70;1.33;;;26.60;1.00;;;;;;5131477;27;20425;-53
2023/09/07 10:29:06;;;;;;;1.50;1.20;;;26.70;1.00;;;;;;5131763;28;20466;-54
2023/09/07 10:31:35;;;;;;;2.60;1.10;;;26.70;1.00;;;;;;5129459;28;20656;-53
2023/09/07 10:34:12;;;;;;;2.38;1.10;;;26.70;1.00;;;;;;5130718;28;20414;-53
2023/09/07 10:36:39;;;;;;;1.50;1.20;;;26.70;1.00;;;;;;5121788;28;20422;-53
2023/09/07 10:39:08;;;;;;;1.33;1.10;;;26.70;1.00;;;;;;5131155;28;20427;-54
2023/09/07 10:41:43;;;;;;;1.40;1.20;;;26.80;1.00;;;;;;5128319;28;20431;-54
2023/09/07 10:44:12;;;;;;;1.20;1.10;;;27.10;1.00;;;;;;5132389;28;20425;-52
2023/09/07 10:46:40;;;;;;;2.00;1.60;;;27.30;1.00;;;;;;5128360;27;20462;-52
2023/09/07 10:49:10;;;;;;;1.70;1.20;;;27.50;1.00;;;;;;5129285;28;20534;-50
2023/09/07 10:51:43;;;;;;;2.70;1.30;;;27.60;1.00;;;;;;5121100;27;20431;-52
2023/09/07 10:54:17;;;;;;;1.88;1.10;;;27.80;1.00;;;;;;5130895;27;20913;-54
2023/09/07 10:56:46;;;;;;;2.50;1.10;;;27.80;1.00;;;;;;5118477;27;20842;-52
2023/09/07 10:59:14;;;;;;;1.40;1.15;;;27.90;1.00;;;;;;5134960;27;20418;-53
2023/09/07 11:01:45;;;;;;;2.00;1.40;;;28.00;1.00;;;;;;5135243;27;20429;-53
2023/09/07 11:04:12;;;;;;;3.25;1.83;;;28.20;1.00;;;;;;5133421;27;20428;-53
2023/09/07 11:06:40;;;;;;;1.70;1.60;;;28.40;1.00;;;;;;5129822;27;20515;-54
2023/09/07 11:09:10;;;;;;;1.77;1.20;;;28.60;1.00;;;;;;5128130;27;20521;-52
2023/09/07 11:11:38;;;;;;;2.40;1.23;;;28.40;1.00;;;;;;5132630;27;20761;-53
2023/09/07 11:14:06;;;;;;;2.30;1.40;;;28.30;1.00;;;;;;5129217;27;20518;-53
2023/09/07 11:16:35;;;;;;;2.00;1.38;;;28.30;1.00;;;;;;5132158;27;20433;-51
2023/09/07 11:19:06;;;;;;;3.30;1.50;;;28.20;1.00;;;;;;5136460;27;20835;-54
2023/09/07 11:21:34;;;;;;;2.30;1.30;;;28.20;1.00;;;;;;5132553;27;20422;-53
2023/09/07 11:24:04;;;;;;;2.70;1.30;;;28.40;1.00;;;;;;5116887;27;20889;-52
2023/09/07 11:26:42;;;;;;;3.00;1.40;;;28.70;1.00;;;;;;5113467;28;20726;-52
2023/09/07 11:29:09;;;;;;;1.90;1.20;;;28.80;1.00;;;;;;5122287;27;20422;-51
2023/09/07 11:31:37;;;;;;;1.73;1.35;;;28.70;1.00;;;;;;5135840;27;20833;-53
2023/09/07 11:34:10;;;;;;;1.40;1.20;;;28.80;1.00;;;;;;5104436;27;20421;-54
2023/09/07 11:36:37;;;;;;;1.80;1.42;;;28.90;1.00;;;;;;5121537;27;20483;-54
2023/09/07 11:39:11;;;;;;;1.67;1.40;;;29.10;1.00;;;;;;5117306;27;20519;-53
2023/09/07 11:41:39;;;;;;;1.47;1.30;;;28.90;1.00;;;;;;5114369;28;20432;-52
2023/09/07 11:44:06;;;;;;;2.10;1.30;;;29.20;1.00;;;;;;5098689;28;20872;-52
2023/09/07 11:46:33;;;;;;;1.75;1.33;;;29.30;1.00;;;;;;5111975;28;20420;-49
2023/09/07 11:49:00;;;;;;;1.58;1.20;;;29.40;1.00;;;;;;5104674;28;20424;-54
2023/09/07 11:51:29;;;;;;;1.83;1.33;;;29.20;1.00;;;;;;5114795;28;20423;-54
2023/09/07 11:53:56;;;;;;;1.70;1.30;;;28.70;1.00;;;;;;5112204;28;20428;-54
2023/09/07 11:56:23;;;;;;;1.60;1.20;;;29.00;1.00;;;;;;5112463;28;20507;-52
2023/09/07 11:58:51;;;;;;;2.00;1.20;;;28.90;1.00;;;;;;5101466;28;20579;-51
2023/09/07 12:01:18;;;;;;;1.52;1.10;;;29.10;1.00;;;;;;5114631;28;20664;-54
2023/09/07 12:03:46;;;;;;;1.67;1.10;;;29.30;1.00;;;;;;5110207;27;20448;-52
2023/09/07 12:06:14;;;;;;;2.30;1.30;;;29.50;1.00;;;;;;5112522;28;20422;-53
2023/09/07 12:08:59;;;;;;;2.10;1.10;;;29.50;1.00;;;;;;5107891;28;20428;-53
2023/09/07 12:11:26;;;;;;;2.60;1.10;;;29.60;1.00;;;;;;5121627;27;20431;-53
2023/09/07 12:13:54;;;;;;;1.40;1.20;;;29.50;1.00;;;;;;5106836;28;20698;-51
2023/09/07 12:16:21;;;;;;;1.20;1.00;;;29.60;1.00;;;;;;5102528;28;20729;-53
2023/09/07 12:18:48;;;;;;;1.40;1.10;;;29.90;1.00;;;;;;5126391;27;20503;-54
2023/09/07 12:21:15;;;;;;;1.60;1.10;;;30.20;1.00;;;;;;5107429;28;20516;-52
2023/09/07 12:23:44;;;;;;;1.40;1.10;;;30.40;1.00;;;;;;5127114;27;20844;-53
2023/09/07 12:26:11;;;;;;;1.60;1.10;;;30.40;1.00;;;;;;5145380;27;20424;-54
2023/09/07 12:28:38;;;;;;;1.70;1.00;;;30.50;1.00;;;;;;5130260;27;20517;-53
2023/09/07 12:31:06;;;;;;;2.20;1.30;;;30.70;1.00;;;;;;5118413;27;20502;-52
2023/09/07 12:33:33;;;;;;;1.40;1.10;;;30.60;1.00;;;;;;5125051;27;20519;-53
2023/09/07 12:36:00;;;;;;;1.33;1.05;;;30.00;1.00;;;;;;5120101;27;20737;-52
2023/09/07 12:38:29;;;;;;;1.65;1.00;;;30.00;1.00;;;;;;5129335;27;20461;-54
2023/09/07 12:40:57;;;;;;;1.50;1.20;;;29.90;1.00;;;;;;5120618;27;20519;-49
2023/09/07 12:43:25;;;;;;;2.67;1.10;;;30.20;1.00;;;;;;5127982;27;20416;-56
2023/09/07 12:45:53;;;;;;;1.40;1.20;;;30.40;1.00;;;;;;5122809;27;20857;-55
2023/09/07 12:48:21;;;;;;;1.20;1.00;;;30.70;1.00;;;;;;5133452;27;20412;-53
2023/09/07 12:50:48;;;;;;;3.70;1.10;;;30.80;1.00;;;;;;5123690;27;20433;-56
2023/09/07 12:53:16;;;;;;;1.60;1.00;;;30.80;1.00;;;;;;5126520;27;20418;-54
2023/09/07 12:55:43;;;;;;;1.23;1.00;;;30.80;1.00;;;;;;5124905;27;20458;-54
2023/09/07 12:58:11;;;;;;;1.20;0.90;;;30.60;1.00;;;;;;5124524;27;21032;-55